Time;durP1;ratioP1;P1;durP2;ratioP2;P2;SDS_P1;SDS_P2;PMS_P1;PMS_P2;Temp;Humidity;BMP_temperature;BMP_pressure;BME280_temperature;BME280_humidity;BME280_pressure;Samples;Min_cycle;Max_cycle;Signal;HPM_P1;HPM_P2
2022/06/28 00:00:58;;;;;;;11.55;8.27;;;;;;;;;;5072648;28;20052;-74
2022/06/28 00:03:24;;;;;;;12.98;8.63;;;;;;;;;;5069055;28;20401;-74
2022/06/28 00:05:50;;;;;;;12.27;8.57;;;;;;;;;;5077561;28;20041;-74
2022/06/28 00:08:16;;;;;;;11.10;7.90;;;;;;;;;;5072572;28;20040;-74
2022/06/28 00:10:42;;;;;;;11.55;8.25;;;;;;;;;;5073142;28;20089;-74
2022/06/28 00:13:08;;;;;;;12.75;8.57;;;;;;;;;;5060634;28;20064;-74
2022/06/28 00:18:19;;;;;;;13.55;8.45;;;;;;;;;;5072422;28;20119;-74
2022/06/28 00:20:45;;;;;;;12.23;8.90;;;;;;;;;;5071730;28;20041;-74
2022/06/28 00:23:11;;;;;;;13.40;9.27;;;;;;;;;;5065591;28;20072;-74
2022/06/28 00:25:37;;;;;;;12.98;9.00;;;;;;;;;;5066642;28;20409;-74
2022/06/28 00:28:03;;;;;;;12.80;8.75;;;;;;;;;;5055794;28;20508;-74
2022/06/28 00:30:29;;;;;;;12.63;8.90;;;;;;;;;;5072313;28;20127;-74
2022/06/28 00:32:55;;;;;;;10.68;8.18;;;;;;;;;;5055067;28;20047;-74
2022/06/28 00:35:22;;;;;;;11.25;7.72;;;;;;;;;;5062523;28;20143;-74
2022/06/28 00:37:48;;;;;;;11.82;7.50;;;;;;;;;;5072297;28;20501;-74
2022/06/28 00:40:14;;;;;;;17.30;7.25;;;;;;;;;;5071674;28;20097;-74
2022/06/28 00:42:40;;;;;;;10.85;7.40;;;;;;;;;;5072418;28;20112;-74
2022/06/28 00:45:06;;;;;;;16.27;8.07;;;;;;;;;;5048702;28;20083;-74
2022/06/28 00:47:32;;;;;;;9.30;6.50;;;;;;;;;;5054824;28;20044;-74
2022/06/28 00:49:59;;;;;;;10.45;6.70;;;;;;;;;;5054549;28;20131;-74
2022/06/28 00:52:26;;;;;;;12.93;6.75;;;;;;;;;;5071268;28;20044;-74
2022/06/28 00:54:52;;;;;;;11.52;7.38;;;;;;;;;;5046926;28;20081;-74
2022/06/28 00:57:18;;;;;;;11.85;7.03;;;;;;;;;;5054622;28;20036;-74
2022/06/28 00:59:44;;;;;;;10.90;7.35;;;;;;;;;;5071435;28;20037;-74
2022/06/28 01:02:11;;;;;;;12.00;6.88;;;;;;;;;;5054944;28;20493;-74
2022/06/28 01:04:37;;;;;;;10.07;6.50;;;;;;;;;;5070464;28;20181;-74
2022/06/28 01:07:04;;;;;;;14.55;6.60;;;;;;;;;;5067041;28;20120;-73
2022/06/28 01:09:30;;;;;;;9.48;6.28;;;;;;;;;;5066667;28;20489;-73
2022/06/28 01:11:56;;;;;;;12.45;6.75;;;;;;;;;;5049613;28;20059;-74
2022/06/28 01:14:23;;;;;;;12.93;6.72;;;;;;;;;;5051236;28;20032;-73
2022/06/28 01:16:49;;;;;;;10.77;5.70;;;;;;;;;;5050316;28;20419;-74
2022/06/28 01:19:16;;;;;;;13.13;6.00;;;;;;;;;;5051086;28;20045;-74
2022/06/28 01:21:43;;;;;;;9.45;5.95;;;;;;;;;;5050714;28;20048;-74
2022/06/28 01:24:09;;;;;;;9.70;6.43;;;;;;;;;;5052365;28;20047;-74
2022/06/28 01:26:35;;;;;;;12.60;6.03;;;;;;;;;;5050808;28;20044;-74
2022/06/28 01:29:01;;;;;;;12.80;5.88;;;;;;;;;;5050714;28;20151;-74
2022/06/28 01:31:27;;;;;;;10.40;5.82;;;;;;;;;;5050814;28;20045;-74
2022/06/28 01:33:54;;;;;;;10.50;5.95;;;;;;;;;;5050660;28;20036;-74
2022/06/28 01:36:20;;;;;;;10.48;6.30;;;;;;;;;;5050431;28;20040;-74
2022/06/28 01:38:46;;;;;;;11.23;5.93;;;;;;;;;;5051552;28;20151;-74
2022/06/28 01:43:58;;;;;;;9.45;4.97;;;;;;;;;;5050197;28;20056;-74
2022/06/28 01:46:25;;;;;;;11.00;5.53;;;;;;;;;;5050692;28;20505;-74
2022/06/28 01:48:52;;;;;;;8.15;5.03;;;;;;;;;;5048980;28;20044;-74
2022/06/28 01:51:18;;;;;;;10.32;5.20;;;;;;;;;;5050833;28;20060;-75
2022/06/28 01:53:44;;;;;;;13.45;5.60;;;;;;;;;;5050114;28;20053;-74
2022/06/28 01:56:10;;;;;;;9.10;5.07;;;;;;;;;;5050975;28;20532;-74
2022/06/28 01:58:36;;;;;;;12.85;5.43;;;;;;;;;;5033696;28;20489;-75
2022/06/28 02:01:02;;;;;;;10.52;5.28;;;;;;;;;;5047633;28;20513;-74
2022/06/28 02:03:28;;;;;;;11.10;5.13;;;;;;;;;;5021984;28;20405;-74
2022/06/28 02:05:54;;;;;;;9.77;5.38;;;;;;;;;;5050062;28;20510;-74
2022/06/28 02:08:20;;;;;;;11.75;5.78;;;;;;;;;;5049676;28;20549;-75
2022/06/28 02:10:46;;;;;;;11.75;5.30;;;;;;;;;;5050188;28;20033;-74
2022/06/28 02:13:12;;;;;;;8.40;5.20;;;;;;;;;;5033765;28;20394;-74
2022/06/28 02:15:39;;;;;;;9.88;5.00;;;;;;;;;;5050459;28;20045;-74
2022/06/28 02:18:05;;;;;;;9.48;4.63;;;;;;;;;;5050673;28;20136;-74
2022/06/28 02:20:31;;;;;;;10.15;4.90;;;;;;;;;;5033345;28;20048;-74
2022/06/28 02:22:57;;;;;;;13.38;5.63;;;;;;;;;;5050134;28;20059;-74
2022/06/28 02:25:23;;;;;;;13.60;5.82;;;;;;;;;;5033677;28;20037;-74
2022/06/28 02:27:49;;;;;;;10.10;5.15;;;;;;;;;;5050084;28;20488;-75
2022/06/28 02:30:16;;;;;;;10.50;5.72;;;;;;;;;;5049981;28;20063;-74
2022/06/28 02:32:42;;;;;;;10.85;5.22;;;;;;;;;;5050067;28;20044;-74
2022/06/28 02:40:37;;;;;;;12.13;5.68;;;;;;;;;;5049785;28;20404;-74
2022/06/28 02:43:03;;;;;;;11.00;5.38;;;;;;;;;;5033215;28;20079;-74
2022/06/28 02:45:30;;;;;;;11.68;5.53;;;;;;;;;;5051254;28;20489;-74
2022/06/28 02:47:56;;;;;;;11.93;5.70;;;;;;;;;;5049842;28;20370;-74
2022/06/28 02:50:23;;;;;;;12.27;5.40;;;;;;;;;;5049731;28;20036;-74
2022/06/28 02:52:49;;;;;;;13.43;5.82;;;;;;;;;;5032838;28;20057;-74
2022/06/28 02:55:15;;;;;;;11.07;5.78;;;;;;;;;;5033688;28;20413;-74
2022/06/28 02:57:41;;;;;;;13.63;5.95;;;;;;;;;;5033553;28;20060;-74
2022/06/28 03:00:09;;;;;;;9.98;5.78;;;;;;;;;;5050161;28;20041;-74
2022/06/28 03:02:36;;;;;;;17.55;6.30;;;;;;;;;;5053864;28;20072;-74
2022/06/28 03:05:03;;;;;;;8.90;5.60;;;;;;;;;;5053500;28;20481;-74
2022/06/28 03:07:29;;;;;;;11.77;6.13;;;;;;;;;;5053261;28;20055;-74
2022/06/28 03:09:55;;;;;;;11.30;6.15;;;;;;;;;;5053344;28;20537;-74
2022/06/28 03:12:21;;;;;;;10.65;6.53;;;;;;;;;;5036147;28;20048;-74
2022/06/28 03:14:48;;;;;;;16.42;5.90;;;;;;;;;;5053341;28;20183;-74
2022/06/28 03:17:14;;;;;;;14.45;6.70;;;;;;;;;;5053253;28;20041;-74
2022/06/28 03:19:40;;;;;;;17.80;6.50;;;;;;;;;;5052911;28;20068;-74
2022/06/28 03:22:06;;;;;;;11.73;6.90;;;;;;;;;;5053659;28;20069;-74
2022/06/28 03:24:32;;;;;;;10.38;6.28;;;;;;;;;;5054444;28;20051;-74
2022/06/28 03:26:58;;;;;;;12.15;6.80;;;;;;;;;;5052802;28;20102;-74
2022/06/28 03:29:24;;;;;;;14.73;6.68;;;;;;;;;;5053150;28;20489;-73
2022/06/28 03:31:50;;;;;;;12.23;7.40;;;;;;;;;;5052710;28;20433;-74
2022/06/28 03:34:17;;;;;;;12.93;8.00;;;;;;;;;;5053783;28;20080;-75
2022/06/28 03:36:43;;;;;;;11.20;7.68;;;;;;;;;;5053137;28;20069;-74
2022/06/28 03:39:09;;;;;;;11.27;7.35;;;;;;;;;;5053041;28;20035;-75
2022/06/28 03:41:35;;;;;;;12.63;7.78;;;;;;;;;;5036672;28;20041;-75
2022/06/28 03:44:01;;;;;;;10.82;7.15;;;;;;;;;;5035241;28;20048;-74
2022/06/28 03:46:27;;;;;;;12.07;7.05;;;;;;;;;;5036272;28;20098;-74
2022/06/28 03:48:53;;;;;;;15.35;7.38;;;;;;;;;;5036575;28;20119;-74
2022/06/28 03:51:19;;;;;;;12.35;6.88;;;;;;;;;;5052555;28;20045;-74
2022/06/28 03:53:45;;;;;;;14.23;6.80;;;;;;;;;;5035410;28;20132;-74
2022/06/28 03:56:11;;;;;;;12.57;6.90;;;;;;;;;;5052960;28;20083;-75
2022/06/28 03:58:37;;;;;;;10.93;6.20;;;;;;;;;;5052413;28;20044;-74
2022/06/28 04:01:03;;;;;;;10.70;6.10;;;;;;;;;;5052318;28;20402;-74
2022/06/28 04:03:30;;;;;;;9.18;5.82;;;;;;;;;;5052294;28;20485;-74
2022/06/28 04:05:56;;;;;;;10.48;6.15;;;;;;;;;;5052984;28;20032;-74
2022/06/28 04:08:22;;;;;;;9.00;5.72;;;;;;;;;;5052700;28;20037;-74
2022/06/28 04:10:48;;;;;;;10.60;5.38;;;;;;;;;;5036053;28;20052;-74
2022/06/28 04:13:14;;;;;;;12.80;5.90;;;;;;;;;;5035213;28;20489;-74
2022/06/28 04:15:41;;;;;;;11.80;5.65;;;;;;;;;;5051726;28;20045;-74
2022/06/28 04:18:07;;;;;;;9.43;4.50;;;;;;;;;;5053149;28;20090;-74
2022/06/28 04:20:35;;;;;;;7.75;4.70;;;;;;;;;;5052012;28;20037;-74
2022/06/28 04:23:01;;;;;;;10.88;4.47;;;;;;;;;;5052090;28;20041;-75
2022/06/28 04:25:27;;;;;;;7.30;4.10;;;;;;;;;;5051575;28;20041;-73
2022/06/28 04:27:56;;;;;;;10.32;3.50;;;;;;;;;;5052449;28;20049;-75
2022/06/28 04:30:25;;;;;;;7.90;3.17;;;;;;;;;;5051706;28;20102;-75
2022/06/28 04:32:51;;;;;;;8.88;3.63;;;;;;;;;;5053412;28;20048;-74
2022/06/28 04:35:17;;;;;;;9.65;3.40;;;;;;;;;;5050694;28;20045;-75
2022/06/28 04:37:43;;;;;;;7.15;3.58;;;;;;;;;;5053678;28;20548;-75
2022/06/28 04:40:09;;;;;;;6.57;3.30;;;;;;;;;;5051623;28;20037;-75
2022/06/28 04:42:36;;;;;;;6.20;3.30;;;;;;;;;;5051810;28;20041;-74
2022/06/28 04:45:02;;;;;;;10.45;3.58;;;;;;;;;;5051251;28;20136;-75
2022/06/28 04:47:28;;;;;;;9.75;3.20;;;;;;;;;;5051272;28;20401;-75
2022/06/28 04:49:55;;;;;;;8.90;3.13;;;;;;;;;;5035373;28;20491;-75
2022/06/28 04:52:21;;;;;;;11.85;3.33;;;;;;;;;;5049432;28;20035;-75
2022/06/28 04:54:47;;;;;;;10.25;3.20;;;;;;;;;;5050729;28;20126;-75
2022/06/28 04:57:13;;;;;;;6.53;2.80;;;;;;;;;;5050474;28;20064;-75
2022/06/28 04:59:39;;;;;;;7.78;3.00;;;;;;;;;;5034945;28;20039;-75
2022/06/28 05:02:05;;;;;;;7.65;3.00;;;;;;;;;;5051277;28;20128;-75
2022/06/28 05:04:31;;;;;;;6.25;3.22;;;;;;;;;;5068085;28;20048;-75
2022/06/28 05:06:57;;;;;;;8.50;3.55;;;;;;;;;;5014273;28;20128;-75
2022/06/28 05:09:23;;;;;;;8.60;2.60;;;;;;;;;;5034511;28;20041;-75
2022/06/28 05:11:49;;;;;;;4.63;2.33;;;;;;;;;;5051707;28;20485;-75
2022/06/28 05:14:15;;;;;;;7.45;2.55;;;;;;;;;;5045796;28;20033;-72
2022/06/28 05:16:41;;;;;;;6.25;2.33;;;;;;;;;;5042698;28;20041;-74
2022/06/28 05:19:07;;;;;;;7.38;2.40;;;;;;;;;;5044937;28;20037;-74
2022/06/28 05:21:33;;;;;;;7.15;2.15;;;;;;;;;;5063360;28;20040;-74
2022/06/28 05:23:59;;;;;;;6.43;2.25;;;;;;;;;;5083142;28;20037;-73
2022/06/28 05:26:25;;;;;;;6.57;1.90;;;;;;;;;;5080630;28;20076;-74
2022/06/28 05:28:51;;;;;;;6.50;1.77;;;;;;;;;;5045841;28;20127;-74
2022/06/28 05:31:17;;;;;;;6.93;1.98;;;;;;;;;;5048172;28;20497;-74
2022/06/28 05:33:43;;;;;;;5.85;1.83;;;;;;;;;;5034422;28;20437;-74
2022/06/28 05:36:09;;;;;;;6.50;1.90;;;;;;;;;;5050328;28;20485;-74
2022/06/28 05:38:36;;;;;;;7.30;1.83;;;;;;;;;;5033883;28;20121;-74
2022/06/28 05:41:02;;;;;;;6.57;1.80;;;;;;;;;;5051057;28;20490;-74
2022/06/28 05:43:29;;;;;;;7.88;1.45;;;;;;;;;;5050238;28;20095;-74
2022/06/28 05:45:55;;;;;;;8.77;2.08;;;;;;;;;;5051045;28;20124;-74
2022/06/28 05:48:21;;;;;;;7.30;1.75;;;;;;;;;;5051094;28;20044;-74
2022/06/28 05:50:47;;;;;;;5.65;1.75;;;;;;;;;;5083344;28;20505;-74
2022/06/28 05:53:14;;;;;;;7.20;1.58;;;;;;;;;;5050296;28;20063;-74
2022/06/28 05:55:40;;;;;;;6.68;1.65;;;;;;;;;;5051445;28;20086;-74
2022/06/28 05:58:06;;;;;;;6.53;1.58;;;;;;;;;;5051895;28;20033;-74
2022/06/28 06:00:33;;;;;;;5.57;1.70;;;;;;;;;;5051068;28;20045;-74
2022/06/28 06:03:00;;;;;;;8.38;2.00;;;;;;;;;;5050810;28;20129;-74
2022/06/28 06:05:26;;;;;;;8.30;1.70;;;;;;;;;;5034174;28;20056;-74
2022/06/28 06:07:52;;;;;;;8.63;1.67;;;;;;;;;;5059065;28;20040;-74
2022/06/28 06:10:18;;;;;;;6.65;1.77;;;;;;;;;;5059532;28;20072;-74
2022/06/28 06:12:44;;;;;;;7.07;1.60;;;;;;;;;;5044855;28;20048;-75
2022/06/28 06:15:10;;;;;;;5.47;1.48;;;;;;;;;;5070599;28;20086;-74
2022/06/28 06:17:37;;;;;;;8.40;1.75;;;;;;;;;;5070397;28;20029;-74
2022/06/28 06:20:03;;;;;;;8.10;1.92;;;;;;;;;;5035677;28;20041;-74
2022/06/28 06:22:30;;;;;;;7.00;1.70;;;;;;;;;;5049228;28;20041;-74
2022/06/28 06:24:56;;;;;;;6.82;1.40;;;;;;;;;;5053816;28;20132;-74
2022/06/28 06:27:22;;;;;;;8.80;1.85;;;;;;;;;;5049329;28;20053;-74
2022/06/28 06:29:48;;;;;;;8.32;1.70;;;;;;;;;;5035110;28;20042;-74
2022/06/28 06:32:14;;;;;;;6.72;1.77;;;;;;;;;;5041284;28;20044;-74
2022/06/28 06:34:40;;;;;;;6.95;1.65;;;;;;;;;;5048154;28;20041;-74
2022/06/28 06:37:06;;;;;;;9.82;1.70;;;;;;;;;;5051064;28;20059;-74
2022/06/28 06:39:33;;;;;;;8.75;2.13;;;;;;;;;;5036105;28;20081;-74
2022/06/28 06:41:59;;;;;;;7.30;2.10;;;;;;;;;;5037376;28;20508;-74
2022/06/28 06:44:26;;;;;;;8.43;1.88;;;;;;;;;;5053824;28;20489;-74
2022/06/28 06:46:52;;;;;;;6.95;1.83;;;;;;;;;;5054915;28;20109;-74
2022/06/28 06:49:18;;;;;;;6.63;1.63;;;;;;;;;;5053451;28;20036;-74
2022/06/28 06:51:47;;;;;;;8.68;1.98;;;;;;;;;;5053110;28;20041;-74
2022/06/28 06:54:13;;;;;;;7.45;1.77;;;;;;;;;;5053232;28;20586;-74
2022/06/28 06:56:40;;;;;;;8.63;1.90;;;;;;;;;;5052832;28;20043;-74
2022/06/28 06:59:07;;;;;;;10.35;2.25;;;;;;;;;;5053905;28;20040;-75
2022/06/28 07:01:34;;;;;;;8.35;1.73;;;;;;;;;;5036193;28;20478;-74
2022/06/28 07:04:01;;;;;;;7.43;1.65;;;;;;;;;;5053044;28;20044;-74
2022/06/28 07:06:27;;;;;;;8.63;2.05;;;;;;;;;;5052713;28;20055;-74
2022/06/28 07:08:53;;;;;;;7.65;1.83;;;;;;;;;;5053088;28;20070;-74
2022/06/28 07:11:19;;;;;;;9.63;1.80;;;;;;;;;;5036596;28;20044;-74
2022/06/28 07:13:45;;;;;;;9.73;1.83;;;;;;;;;;5053284;28;20096;-74
2022/06/28 07:16:11;;;;;;;7.45;1.88;;;;;;;;;;5053096;28;20079;-75
2022/06/28 07:18:37;;;;;;;7.15;1.70;;;;;;;;;;5052167;28;20040;-75
2022/06/28 07:21:03;;;;;;;10.77;1.70;;;;;;;;;;5053222;28;20063;-74
2022/06/28 07:23:30;;;;;;;6.68;1.52;;;;;;;;;;5036029;28;20037;-74
2022/06/28 07:25:56;;;;;;;8.02;1.63;;;;;;;;;;5043347;28;20603;-74
2022/06/28 07:28:22;;;;;;;8.13;1.63;;;;;;;;;;5052317;28;20076;-75
2022/06/28 07:30:48;;;;;;;10.70;2.00;;;;;;;;;;5036474;28;20045;-74
2022/06/28 07:33:14;;;;;;;6.22;1.58;;;;;;;;;;5060106;28;20039;-74
2022/06/28 07:35:41;;;;;;;7.13;1.65;;;;;;;;;;5054468;28;20037;-74
2022/06/28 07:38:07;;;;;;;6.82;1.50;;;;;;;;;;5065627;28;20209;-74
2022/06/28 07:40:33;;;;;;;9.95;1.80;;;;;;;;;;5070486;28;20029;-74
2022/06/28 07:42:59;;;;;;;8.63;1.83;;;;;;;;;;5043575;28;20072;-74
2022/06/28 07:45:25;;;;;;;6.15;1.42;;;;;;;;;;5034400;28;20041;-75
2022/06/28 07:47:51;;;;;;;9.00;1.73;;;;;;;;;;5050665;28;20079;-74
2022/06/28 07:53:03;;;;;;;7.63;1.60;;;;;;;;;;5052108;28;20052;-74
2022/06/28 07:55:31;;;;;;;7.13;1.70;;;;;;;;;;5032633;28;20045;-74
2022/06/28 07:57:57;;;;;;;8.77;2.03;;;;;;;;;;5052301;28;20041;-74
2022/06/28 08:00:23;;;;;;;8.48;1.63;;;;;;;;;;5052321;28;20048;-74
2022/06/28 08:02:50;;;;;;;5.75;1.80;;;;;;;;;;5051084;28;20077;-74
2022/06/28 08:05:16;;;;;;;6.07;1.30;;;;;;;;;;5035372;28;20044;-74
2022/06/28 08:07:43;;;;;;;8.07;1.92;;;;;;;;;;5050713;28;20053;-74
2022/06/28 08:10:10;;;;;;;6.63;1.33;;;;;;;;;;5052082;28;20044;-74
2022/06/28 08:12:36;;;;;;;5.50;1.70;;;;;;;;;;5051271;28;20438;-73
2022/06/28 08:15:03;;;;;;;6.93;1.45;;;;;;;;;;5051804;28;20098;-73
2022/06/28 08:17:29;;;;;;;6.68;1.58;;;;;;;;;;5050397;28;20188;-74
2022/06/28 08:19:55;;;;;;;6.32;1.60;;;;;;;;;;5051969;28;20473;-74
2022/06/28 08:22:22;;;;;;;5.88;1.33;;;;;;;;;;5052643;28;20120;-74
2022/06/28 08:24:48;;;;;;;6.88;1.60;;;;;;;;;;5052304;28;20045;-74
2022/06/28 08:27:14;;;;;;;6.47;1.23;;;;;;;;;;5051461;28;20067;-74
2022/06/28 08:29:42;;;;;;;6.65;1.25;;;;;;;;;;5050278;28;20045;-74
2022/06/28 08:32:09;;;;;;;7.05;1.60;;;;;;;;;;5051845;28;20052;-74
2022/06/28 08:34:35;;;;;;;5.95;1.48;;;;;;;;;;5051004;28;20041;-74
2022/06/28 08:37:01;;;;;;;7.80;1.33;;;;;;;;;;5034099;28;20068;-73
2022/06/28 08:39:27;;;;;;;7.57;1.50;;;;;;;;;;5051882;28;20520;-76
2022/06/28 08:41:54;;;;;;;6.13;1.38;;;;;;;;;;5051147;28;20036;-73
2022/06/28 08:44:20;;;;;;;6.22;1.25;;;;;;;;;;5052155;28;20045;-74
2022/06/28 08:46:49;;;;;;;7.65;1.70;;;;;;;;;;5050927;28;20069;-74
2022/06/28 08:49:23;;;;;;;5.88;1.50;;;;;;;;;;5041897;28;20033;-74
2022/06/28 08:51:50;;;;;;;5.43;1.45;;;;;;;;;;5034397;28;20049;-74
2022/06/28 08:54:19;;;;;;;6.05;1.40;;;;;;;;;;5052788;28;20092;-74
2022/06/28 08:56:49;;;;;;;5.97;1.48;;;;;;;;;;5036222;28;20494;-75
2022/06/28 08:59:16;;;;;;;7.55;1.17;;;;;;;;;;5050312;28;20452;-76
2022/06/28 09:01:42;;;;;;;6.50;1.20;;;;;;;;;;5043863;28;20095;-78
2022/06/28 09:04:10;;;;;;;6.10;1.20;;;;;;;;;;5068189;28;20374;-77
2022/06/28 09:06:37;;;;;;;7.60;1.67;;;;;;;;;;5050486;28;20041;-77
2022/06/28 09:09:03;;;;;;;7.53;1.85;;;;;;;;;;5034103;28;20049;-77
2022/06/28 09:11:39;;;;;;;9.85;1.40;;;;;;;;;;5034204;28;20045;-76
2022/06/28 09:14:21;;;;;;;6.32;1.40;;;;;;;;;;5079191;28;20507;-76
2022/06/28 09:16:48;;;;;;;5.25;1.58;;;;;;;;;;5049884;28;20056;-77
2022/06/28 09:19:14;;;;;;;5.30;1.30;;;;;;;;;;5069905;28;20386;-77
2022/06/28 09:21:44;;;;;;;5.20;1.38;;;;;;;;;;5050552;28;20033;-76
2022/06/28 09:24:10;;;;;;;5.63;1.35;;;;;;;;;;5033996;28;20044;-77
2022/06/28 09:26:36;;;;;;;4.88;1.30;;;;;;;;;;5047405;28;20037;-75
2022/06/28 09:29:06;;;;;;;6.22;1.30;;;;;;;;;;5050367;28;20171;-76
2022/06/28 09:31:32;;;;;;;7.13;1.70;;;;;;;;;;5050657;28;20037;-76
2022/06/28 09:34:02;;;;;;;6.13;1.40;;;;;;;;;;5050323;28;20060;-76
2022/06/28 09:36:29;;;;;;;6.93;1.35;;;;;;;;;;5050800;28;20049;-76
2022/06/28 09:38:57;;;;;;;6.43;1.30;;;;;;;;;;5033686;28;20040;-76
2022/06/28 09:41:27;;;;;;;4.65;1.40;;;;;;;;;;5033887;28;20044;-76
2022/06/28 09:44:00;;;;;;;7.90;1.88;;;;;;;;;;5049855;28;20055;-76
2022/06/28 09:46:27;;;;;;;7.10;1.17;;;;;;;;;;5050677;28;20048;-76
2022/06/28 09:48:57;;;;;;;4.80;1.25;;;;;;;;;;5034013;28;20500;-76
2022/06/28 09:51:24;;;;;;;4.65;1.30;;;;;;;;;;5017599;28;20068;-76
2022/06/28 09:53:53;;;;;;;5.35;1.20;;;;;;;;;;5049607;28;20409;-76
2022/06/28 09:56:22;;;;;;;4.00;1.20;;;;;;;;;;5050110;28;20048;-76
2022/06/28 09:58:48;;;;;;;4.13;1.42;;;;;;;;;;5033539;28;20455;-76
2022/06/28 10:01:15;;;;;;;5.13;1.38;;;;;;;;;;5050515;28;20037;-76
2022/06/28 10:03:42;;;;;;;5.43;1.45;;;;;;;;;;5033357;28;20041;-76
2022/06/28 10:06:09;;;;;;;5.13;1.20;;;;;;;;;;5050546;28;20042;-76
2022/06/28 10:08:35;;;;;;;4.65;1.52;;;;;;;;;;5050246;28;20094;-76
2022/06/28 10:11:02;;;;;;;5.38;1.30;;;;;;;;;;5049299;28;20858;-76
2022/06/28 10:16:28;;;;;;;4.22;1.05;;;;;;;;;;5050010;28;20068;-76
2022/06/28 10:18:55;;;;;;;5.05;1.60;;;;;;;;;;5049775;28;20072;-76
2022/06/28 10:21:41;;;;;;;5.07;1.50;;;;;;;;;;5050178;28;20098;-76
2022/06/28 10:24:07;;;;;;;4.95;1.10;;;;;;;;;;5033422;28;20106;-76
2022/06/28 10:26:33;;;;;;;3.40;1.00;;;;;;;;;;5050441;28;20044;-76
2022/06/28 10:29:07;;;;;;;4.15;1.05;;;;;;;;;;5049782;28;20044;-76
2022/06/28 10:31:38;;;;;;;4.70;1.30;;;;;;;;;;5050399;28;20048;-75
2022/06/28 10:34:07;;;;;;;3.45;1.10;;;;;;;;;;5049731;28;20459;-75
2022/06/28 10:36:44;;;;;;;8.05;1.30;;;;;;;;;;5050327;28;20063;-76
2022/06/28 10:39:11;;;;;;;3.28;1.05;;;;;;;;;;5021859;28;20067;-75
2022/06/28 10:41:40;;;;;;;4.72;1.10;;;;;;;;;;5050362;28;20041;-75
2022/06/28 10:44:27;;;;;;;3.80;1.00;;;;;;;;;;5045539;28;20521;-75
2022/06/28 10:46:57;;;;;;;5.30;1.23;;;;;;;;;;5044562;28;20557;-76
2022/06/28 10:49:23;;;;;;;4.90;1.10;;;;;;;;;;5049844;28;20067;-75
2022/06/28 10:52:09;;;;;;;4.72;1.30;;;;;;;;;;5049559;28;20045;-76
2022/06/28 10:54:35;;;;;;;3.72;1.00;;;;;;;;;;5046044;28;20063;-76
2022/06/28 10:57:01;;;;;;;6.28;1.30;;;;;;;;;;5048921;28;20033;-76
2022/06/28 10:59:37;;;;;;;4.75;1.08;;;;;;;;;;5049020;28;20120;-75
2022/06/28 11:02:03;;;;;;;3.85;0.80;;;;;;;;;;5045849;28;20037;-76
2022/06/28 11:04:30;;;;;;;4.05;1.10;;;;;;;;;;5039208;28;20505;-76
2022/06/28 11:07:21;;;;;;;6.35;1.40;;;;;;;;;;5030722;28;20486;-76
2022/06/28 11:09:56;;;;;;;3.28;0.90;;;;;;;;;;5032011;28;20052;-76
2022/06/28 11:12:36;;;;;;;3.83;1.08;;;;;;;;;;5049215;28;20040;-76
2022/06/28 11:15:05;;;;;;;4.38;0.90;;;;;;;;;;5025954;28;20052;-75
2022/06/28 11:17:32;;;;;;;3.92;1.15;;;;;;;;;;5049450;28;20040;-76
2022/06/28 11:20:00;;;;;;;3.33;0.90;;;;;;;;;;5048877;28;20049;-76
2022/06/28 11:22:31;;;;;;;4.88;1.10;;;;;;;;;;5031597;28;20056;-76
2022/06/28 11:24:58;;;;;;;4.68;1.13;;;;;;;;;;5036059;28;20045;-77
2022/06/28 11:27:24;;;;;;;5.13;0.93;;;;;;;;;;5052981;28;20045;-76
2022/06/28 11:29:54;;;;;;;4.35;0.90;;;;;;;;;;5053509;28;20494;-75
2022/06/28 11:32:26;;;;;;;2.15;0.75;;;;;;;;;;5052197;28;20045;-75
2022/06/28 11:34:55;;;;;;;5.30;1.00;;;;;;;;;;5083094;28;20049;-75
2022/06/28 11:37:22;;;;;;;5.10;1.10;;;;;;;;;;5036120;28;20045;-75
2022/06/28 11:39:50;;;;;;;4.32;1.02;;;;;;;;;;5053800;28;20511;-75
2022/06/28 11:42:16;;;;;;;4.65;1.23;;;;;;;;;;5051656;28;20043;-75
2022/06/28 11:44:43;;;;;;;2.58;0.80;;;;;;;;;;5052441;28;20041;-75
2022/06/28 11:47:09;;;;;;;4.43;1.30;;;;;;;;;;5051126;28;20037;-75
2022/06/28 11:49:36;;;;;;;2.13;0.80;;;;;;;;;;5052689;28;20045;-75
2022/06/28 11:52:02;;;;;;;5.88;0.98;;;;;;;;;;5049294;28;20085;-75
2022/06/28 11:54:28;;;;;;;4.30;1.10;;;;;;;;;;5035584;28;20049;-75
2022/06/28 11:56:54;;;;;;;3.63;1.10;;;;;;;;;;5051005;28;20167;-75
2022/06/28 11:59:21;;;;;;;3.50;1.10;;;;;;;;;;5052415;28;20559;-75
2022/06/28 12:01:47;;;;;;;3.40;1.00;;;;;;;;;;5051996;28;20136;-75
2022/06/28 12:04:22;;;;;;;4.78;1.15;;;;;;;;;;5035408;28;20116;-75
2022/06/28 12:06:48;;;;;;;;;;;;;;;;;;5052946;28;20490;-75
2022/06/28 12:09:14;;;;;;;3.10;1.00;;;;;;;;;;5052123;28;19924;-75
2022/06/28 12:11:45;;;;;;;4.93;0.93;;;;;;;;;;5069268;28;20543;-75
2022/06/28 12:14:15;;;;;;;5.43;1.30;;;;;;;;;;5051584;28;20048;-75
2022/06/28 12:16:48;;;;;;;5.93;1.10;;;;;;;;;;5052513;28;20120;-75
2022/06/28 12:19:15;;;;;;;3.53;1.13;;;;;;;;;;5073468;28;20037;-75
2022/06/28 12:22:01;;;;;;;3.55;1.00;;;;;;;;;;5083742;28;20370;-75
2022/06/28 12:24:45;;;;;;;4.00;1.08;;;;;;;;;;5048711;28;20663;-75
2022/06/28 12:27:13;;;;;;;4.25;0.93;;;;;;;;;;5032731;28;20040;-75
2022/06/28 12:29:39;;;;;;;5.00;1.00;;;;;;;;;;5052170;28;20037;-75
2022/06/28 12:32:05;;;;;;;2.92;0.70;;;;;;;;;;5051373;28;20044;-75
2022/06/28 12:34:31;;;;;;;4.18;0.80;;;;;;;;;;5051832;28;20497;-76
2022/06/28 12:36:57;;;;;;;4.88;1.02;;;;;;;;;;5051678;28;20374;-76
2022/06/28 12:39:23;;;;;;;3.05;0.90;;;;;;;;;;5050771;28;20044;-76
2022/06/28 12:41:50;;;;;;;4.07;1.05;;;;;;;;;;5054186;28;20507;-76
2022/06/28 12:44:16;;;;;;;5.28;1.08;;;;;;;;;;5053896;28;20041;-76
2022/06/28 12:46:43;;;;;;;5.03;1.10;;;;;;;;;;5051553;28;20045;-76
2022/06/28 12:49:09;;;;;;;5.28;1.10;;;;;;;;;;5051221;28;20043;-75
2022/06/28 12:51:36;;;;;;;4.15;0.85;;;;;;;;;;5051264;28;20037;-76
2022/06/28 12:54:02;;;;;;;3.55;0.90;;;;;;;;;;5050627;28;20068;-76
2022/06/28 12:56:28;;;;;;;6.20;1.30;;;;;;;;;;5041350;28;20048;-76
2022/06/28 12:58:58;;;;;;;3.55;1.00;;;;;;;;;;5034637;28;20102;-76
2022/06/28 13:01:24;;;;;;;3.70;1.10;;;;;;;;;;5050755;28;20317;-76
2022/06/28 13:03:50;;;;;;;4.90;1.02;;;;;;;;;;5051254;28;20071;-76
2022/06/28 13:06:17;;;;;;;4.88;1.10;;;;;;;;;;5050167;28;20112;-76
2022/06/28 13:08:43;;;;;;;4.22;0.93;;;;;;;;;;5050846;28;20048;-76
2022/06/28 13:11:09;;;;;;;3.17;1.00;;;;;;;;;;5050212;28;20082;-76
2022/06/28 13:13:35;;;;;;;5.38;1.20;;;;;;;;;;5051130;28;20033;-76
2022/06/28 13:16:02;;;;;;;4.95;1.20;;;;;;;;;;5050859;28;20052;-76
2022/06/28 13:18:28;;;;;;;5.93;1.10;;;;;;;;;;5050447;28;20044;-76
2022/06/28 13:20:55;;;;;;;4.55;0.93;;;;;;;;;;5050868;28;20163;-76
2022/06/28 13:23:24;;;;;;;3.92;1.00;;;;;;;;;;5050635;28;20041;-76
2022/06/28 13:25:50;;;;;;;5.35;1.10;;;;;;;;;;5051427;28;20528;-76
2022/06/28 13:28:16;;;;;;;4.60;1.23;;;;;;;;;;5034034;28;20040;-76
2022/06/28 13:30:43;;;;;;;4.65;1.38;;;;;;;;;;5034380;28;20037;-76
2022/06/28 13:33:10;;;;;;;4.07;0.90;;;;;;;;;;5034091;28;20119;-76
2022/06/28 13:35:36;;;;;;;5.57;1.33;;;;;;;;;;5050793;28;20044;-76
2022/06/28 13:38:03;;;;;;;8.82;1.30;;;;;;;;;;5051143;28;20123;-76
2022/06/28 13:40:29;;;;;;;6.75;1.20;;;;;;;;;;5050673;28;20037;-76
2022/06/28 13:42:55;;;;;;;7.22;1.42;;;;;;;;;;5050831;28;20063;-76
2022/06/28 13:45:21;;;;;;;4.90;1.17;;;;;;;;;;5049542;28;20044;-76
2022/06/28 13:47:48;;;;;;;4.47;1.17;;;;;;;;;;5050081;28;20127;-77
2022/06/28 13:50:15;;;;;;;4.45;1.10;;;;;;;;;;5050332;28;20053;-75
2022/06/28 13:52:43;;;;;;;5.72;1.40;;;;;;;;;;5033239;28;20656;-76
2022/06/28 13:55:10;;;;;;;5.78;1.15;;;;;;;;;;5050348;28;20106;-76
2022/06/28 13:57:37;;;;;;;6.05;1.20;;;;;;;;;;5051095;28;20551;-75
2022/06/28 14:00:04;;;;;;;4.97;1.20;;;;;;;;;;5050802;28;20425;-74
2022/06/28 14:02:30;;;;;;;6.50;1.30;;;;;;;;;;5049751;28;20463;-75
2022/06/28 14:04:56;;;;;;;5.95;1.25;;;;;;;;;;5033624;28;20052;-76
2022/06/28 14:07:22;;;;;;;5.30;1.20;;;;;;;;;;5050497;28;20045;-75
2022/06/28 14:09:48;;;;;;;6.25;1.38;;;;;;;;;;5050813;28;20041;-75
2022/06/28 14:12:15;;;;;;;4.78;1.33;;;;;;;;;;5033177;28;20045;-75
2022/06/28 14:14:41;;;;;;;5.10;1.20;;;;;;;;;;5029906;28;20704;-75
2022/06/28 14:17:07;;;;;;;6.18;1.20;;;;;;;;;;5026381;28;20127;-75
2022/06/28 14:19:33;;;;;;;6.05;1.35;;;;;;;;;;5050853;28;20316;-75
2022/06/28 14:21:59;;;;;;;13.05;2.30;;;;;;;;;;5045970;28;20033;-75
2022/06/28 14:24:25;;;;;;;6.32;1.77;;;;;;;;;;5049725;28;20489;-75
2022/06/28 14:26:51;;;;;;;8.52;1.33;;;;;;;;;;5034967;28;20541;-75
2022/06/28 14:29:18;;;;;;;8.32;1.55;;;;;;;;;;5050082;28;20106;-75
2022/06/28 14:31:44;;;;;;;6.43;1.15;;;;;;;;;;5047879;28;20124;-75
2022/06/28 14:34:13;;;;;;;6.47;2.00;;;;;;;;;;5050588;28;20076;-75
2022/06/28 14:36:40;;;;;;;5.85;1.20;;;;;;;;;;5032073;28;20037;-76
2022/06/28 14:39:06;;;;;;;8.90;1.52;;;;;;;;;;5033898;28;20044;-75
2022/06/28 14:41:32;;;;;;;4.70;1.40;;;;;;;;;;5050116;28;20041;-76
2022/06/28 14:43:58;;;;;;;5.60;1.00;;;;;;;;;;5032548;28;20079;-75
2022/06/28 14:46:25;;;;;;;7.97;1.90;;;;;;;;;;5047204;28;20040;-75
2022/06/28 14:48:51;;;;;;;5.93;1.52;;;;;;;;;;5044792;28;20609;-76
2022/06/28 14:51:17;;;;;;;7.38;1.30;;;;;;;;;;5046526;28;20052;-74
2022/06/28 14:53:43;;;;;;;3.85;1.20;;;;;;;;;;5029794;28;20053;-74
2022/06/28 14:56:09;;;;;;;7.30;1.42;;;;;;;;;;5083895;28;20037;-73